createdAt,value
2023-12-08T00:00:49.539Z,8.40
2023-12-08T00:03:16.724Z,6.65
2023-12-08T00:05:43.331Z,6.97
2023-12-08T00:08:11.992Z,7.30
2023-12-08T00:10:38.507Z,9.43
2023-12-08T00:13:05.060Z,7.60
2023-12-08T00:15:32.101Z,8.77
2023-12-08T00:17:58.709Z,7.65
2023-12-08T00:20:25.307Z,7.25
2023-12-08T00:22:51.897Z,8.65
2023-12-08T00:25:18.528Z,10.20
2023-12-08T00:27:45.116Z,7.22
2023-12-08T00:30:13.363Z,9.35
2023-12-08T00:32:40.180Z,10.07
2023-12-08T00:35:07.672Z,7.20
2023-12-08T00:37:34.309Z,8.18
2023-12-08T00:40:01.163Z,9.05
2023-12-08T00:42:28.970Z,10.10
2023-12-08T00:44:55.731Z,8.77
2023-12-08T00:47:22.363Z,10.35
2023-12-08T00:49:49.115Z,8.52
2023-12-08T00:52:15.795Z,7.47
2023-12-08T00:54:42.356Z,7.28
2023-12-08T00:57:09.560Z,8.13
2023-12-08T00:59:36.188Z,7.15
2023-12-08T01:02:03.056Z,9.00
2023-12-08T01:04:29.828Z,8.05
2023-12-08T01:06:56.336Z,8.40
2023-12-08T01:09:23.076Z,7.78
2023-12-08T01:11:50.138Z,7.15
2023-12-08T01:14:16.755Z,8.30
2023-12-08T01:16:43.731Z,7.28
2023-12-08T01:19:12.197Z,7.90
2023-12-08T01:21:39.911Z,6.97
2023-12-08T01:24:07.399Z,8.88
2023-12-08T01:26:34.224Z,7.40
2023-12-08T01:29:00.962Z,7.93
2023-12-08T01:31:27.479Z,7.68
2023-12-08T01:33:54.396Z,7.68
2023-12-08T01:36:39.620Z,9.05
2023-12-08T01:39:07.707Z,8.88
2023-12-08T01:41:34.605Z,7.55
2023-12-08T01:44:01.248Z,8.82
2023-12-08T01:46:31.085Z,7.53
2023-12-08T01:48:59.374Z,6.70
2023-12-08T01:51:26.726Z,7.35
2023-12-08T01:53:53.357Z,9.15
2023-12-08T01:56:20.181Z,9.05
2023-12-08T01:58:46.978Z,9.60
2023-12-08T02:01:14.379Z,7.57
2023-12-08T02:03:41.851Z,9.20
2023-12-08T02:06:10.895Z,9.40
2023-12-08T02:08:37.884Z,7.43
2023-12-08T02:11:04.705Z,7.35
2023-12-08T02:13:31.683Z,6.38
2023-12-08T02:16:05.384Z,8.32
2023-12-08T02:18:34.277Z,6.95
2023-12-08T02:21:02.729Z,8.20
2023-12-08T02:23:29.410Z,7.75
2023-12-08T02:25:56.226Z,6.75
2023-12-08T02:28:22.844Z,8.13
2023-12-08T02:30:51.756Z,7.78
2023-12-08T02:33:30.882Z,9.07
2023-12-08T02:35:58.773Z,5.93
2023-12-08T02:38:26.094Z,6.30
2023-12-08T02:40:52.916Z,9.02
2023-12-08T02:43:19.557Z,6.05
2023-12-08T02:45:46.082Z,8.20
2023-12-08T02:48:12.665Z,9.60
2023-12-08T02:50:39.330Z,8.73
2023-12-08T02:53:05.880Z,7.15
2023-12-08T02:55:32.780Z,8.32
2023-12-08T02:57:59.390Z,8.27
2023-12-08T03:00:25.923Z,6.72
2023-12-08T03:02:52.504Z,8.02
2023-12-08T03:05:19.150Z,6.47
2023-12-08T03:07:45.914Z,6.32
2023-12-08T03:10:12.629Z,6.20
2023-12-08T03:12:39.211Z,6.13
2023-12-08T03:15:06.975Z,6.53
2023-12-08T03:17:33.609Z,7.90
2023-12-08T03:20:00.384Z,8.85
2023-12-08T03:22:27.944Z,6.50
2023-12-08T03:24:54.507Z,6.05
2023-12-08T03:27:21.654Z,9.70
2023-12-08T03:29:48.456Z,6.47
2023-12-08T03:32:15.018Z,6.40
2023-12-08T03:34:41.605Z,7.75
2023-12-08T03:37:08.166Z,7.75
2023-12-08T03:39:34.682Z,7.13
2023-12-08T03:42:01.276Z,6.57
2023-12-08T03:44:27.905Z,6.20
2023-12-08T03:46:54.454Z,6.75
2023-12-08T03:49:21.156Z,6.78
2023-12-08T03:51:47.719Z,6.65
2023-12-08T03:54:14.402Z,6.78
2023-12-08T03:56:41.047Z,6.93
2023-12-08T03:59:07.593Z,7.78
2023-12-08T04:01:34.117Z,7.20
2023-12-08T04:04:00.764Z,8.50
2023-12-08T04:06:27.731Z,6.22
2023-12-08T04:08:54.333Z,7.85
2023-12-08T04:11:20.899Z,6.97
2023-12-08T04:13:47.420Z,6.70
2023-12-08T04:16:15.427Z,6.88
2023-12-08T04:18:42.088Z,7.15
2023-12-08T04:21:08.838Z,6.85
2023-12-08T04:23:35.938Z,7.28
2023-12-08T04:26:02.438Z,6.43
2023-12-08T04:28:28.987Z,7.18
2023-12-08T04:30:55.539Z,6.57
2023-12-08T04:33:22.260Z,7.10
2023-12-08T04:35:49.000Z,8.68
2023-12-08T04:38:15.632Z,7.38
2023-12-08T04:40:42.179Z,7.35
2023-12-08T04:43:08.721Z,8.32
2023-12-08T04:45:35.275Z,8.32
2023-12-08T04:48:02.423Z,8.85
2023-12-08T04:50:29.302Z,7.22
2023-12-08T04:52:55.937Z,6.88
2023-12-08T04:55:22.549Z,7.28
2023-12-08T04:57:49.195Z,7.63
2023-12-08T05:00:16.189Z,6.78
2023-12-08T05:02:42.827Z,8.10
2023-12-08T05:05:09.433Z,6.78
2023-12-08T05:07:36.003Z,8.77
2023-12-08T05:10:02.559Z,9.48
2023-12-08T05:12:29.165Z,7.72
2023-12-08T05:14:55.733Z,7.35
2023-12-08T05:17:22.321Z,9.43
2023-12-08T05:19:49.148Z,7.80
2023-12-08T05:22:15.808Z,7.72
2023-12-08T05:24:42.376Z,7.22
2023-12-08T05:27:09.440Z,9.07
2023-12-08T05:29:36.425Z,7.68
2023-12-08T05:32:03.302Z,7.15
2023-12-08T05:34:30.492Z,9.13
2023-12-08T05:36:57.488Z,9.52
2023-12-08T05:39:24.039Z,9.18
2023-12-08T05:41:50.642Z,7.30
2023-12-08T05:44:17.406Z,8.48
2023-12-08T05:46:44.025Z,9.48
2023-12-08T05:49:10.881Z,9.82
2023-12-08T05:51:37.650Z,7.00
2023-12-08T05:54:04.450Z,7.85
2023-12-08T05:56:31.060Z,8.98
2023-12-08T05:58:57.567Z,7.78
2023-12-08T06:01:24.232Z,8.10
2023-12-08T06:03:50.911Z,7.40
2023-12-08T06:06:17.671Z,9.27
2023-12-08T06:08:44.422Z,9.73
2023-12-08T06:11:11.025Z,8.18
2023-12-08T06:13:37.624Z,7.68
2023-12-08T06:16:05.269Z,8.18
2023-12-08T06:18:32.157Z,8.02
2023-12-08T06:20:59.579Z,8.93
2023-12-08T06:23:26.495Z,7.63
2023-12-08T06:25:53.087Z,7.88
2023-12-08T06:28:19.624Z,8.05
2023-12-08T06:30:46.244Z,7.95
2023-12-08T06:33:12.904Z,7.70
2023-12-08T06:35:39.556Z,9.98
2023-12-08T06:38:06.122Z,7.63
2023-12-08T06:40:32.845Z,8.20
2023-12-08T06:42:59.545Z,9.48
2023-12-08T06:45:26.104Z,8.38
2023-12-08T06:47:52.852Z,8.77
2023-12-08T06:50:19.502Z,7.03
2023-12-08T06:52:48.061Z,9.40
2023-12-08T06:55:15.033Z,8.00
2023-12-08T06:57:41.615Z,7.22
2023-12-08T07:00:11.745Z,7.95
2023-12-08T07:02:38.778Z,8.15
2023-12-08T07:05:08.654Z,9.30
2023-12-08T07:07:35.182Z,8.27
2023-12-08T07:10:01.758Z,8.27
2023-12-08T07:12:28.256Z,10.23
2023-12-08T07:14:55.008Z,8.35
2023-12-08T07:17:21.680Z,8.80
2023-12-08T07:19:48.572Z,9.10
2023-12-08T07:22:15.328Z,8.65
2023-12-08T07:24:41.965Z,8.60
2023-12-08T07:27:08.526Z,8.75
2023-12-08T07:29:35.273Z,8.90
2023-12-08T07:32:01.963Z,8.07
2023-12-08T07:34:28.739Z,8.63
2023-12-08T07:36:55.364Z,10.20
2023-12-08T07:39:21.953Z,8.85
2023-12-08T07:41:48.689Z,9.70
2023-12-08T07:44:15.933Z,9.85
2023-12-08T07:46:42.470Z,8.30
2023-12-08T07:49:10.055Z,8.93
2023-12-08T07:51:37.875Z,8.90
2023-12-08T07:54:04.841Z,8.00
2023-12-08T07:56:31.803Z,8.98
2023-12-08T07:58:58.331Z,8.15
2023-12-08T08:01:24.889Z,8.55
2023-12-08T08:03:51.558Z,8.43
2023-12-08T08:06:18.272Z,8.98
2023-12-08T08:08:45.013Z,8.18
2023-12-08T08:11:11.576Z,9.93
2023-12-08T08:13:38.115Z,8.40
2023-12-08T08:16:04.829Z,9.70
2023-12-08T08:18:31.563Z,8.55
2023-12-08T08:20:58.341Z,9.05
2023-12-08T08:23:24.992Z,7.97
2023-12-08T08:25:51.968Z,8.18
2023-12-08T08:28:19.230Z,10.02
2023-12-08T08:30:46.339Z,7.57
2023-12-08T08:33:13.033Z,10.35
2023-12-08T08:35:42.160Z,8.02
2023-12-08T08:38:08.913Z,8.25
2023-12-08T08:40:35.542Z,7.50
2023-12-08T08:43:02.096Z,9.85
2023-12-08T08:45:28.678Z,7.82
2023-12-08T08:47:55.551Z,8.93
2023-12-08T08:50:23.352Z,7.63
2023-12-08T08:52:50.408Z,8.55
2023-12-08T08:55:17.415Z,8.13
2023-12-08T08:57:45.266Z,10.30
2023-12-08T09:00:13.861Z,8.38
2023-12-08T09:02:42.334Z,7.57
2023-12-08T09:05:09.200Z,7.95
2023-12-08T09:07:37.321Z,7.47
2023-12-08T09:10:04.612Z,6.95
2023-12-08T09:12:31.361Z,7.63
2023-12-08T09:14:58.255Z,7.57
2023-12-08T09:17:24.922Z,7.85
2023-12-08T09:19:52.443Z,7.63
2023-12-08T09:22:19.194Z,7.57
2023-12-08T09:24:45.762Z,8.23
2023-12-08T09:27:12.496Z,7.95
2023-12-08T09:29:39.137Z,8.23
2023-12-08T09:32:06.442Z,7.80
2023-12-08T09:34:34.177Z,8.20
2023-12-08T09:37:25.963Z,8.43
2023-12-08T09:39:47.802Z,8.18
2023-12-08T09:42:22.469Z,7.82
2023-12-08T09:44:50.084Z,8.48
2023-12-08T09:47:19.194Z,8.60
2023-12-08T09:49:47.843Z,8.45
2023-12-08T09:52:17.868Z,9.05
2023-12-08T09:54:45.192Z,8.13
2023-12-08T09:57:12.149Z,7.97
2023-12-08T09:59:39.887Z,8.85
2023-12-08T10:02:09.920Z,8.85
2023-12-08T10:04:37.296Z,8.55
2023-12-08T10:07:07.137Z,9.30
2023-12-08T10:09:36.183Z,8.93
2023-12-08T10:12:03.523Z,9.10
2023-12-08T10:14:30.517Z,9.18
2023-12-08T10:16:57.069Z,8.68
2023-12-08T10:19:23.914Z,9.23
2023-12-08T10:22:03.051Z,8.70
2023-12-08T10:24:34.683Z,8.48
2023-12-08T10:27:02.212Z,9.07
2023-12-08T10:29:32.606Z,8.85
2023-12-08T10:31:59.724Z,8.77
2023-12-08T10:34:27.812Z,8.48
2023-12-08T10:36:58.194Z,9.60
2023-12-08T10:39:28.692Z,8.90
2023-12-08T10:41:56.826Z,9.32
2023-12-08T10:44:26.418Z,9.20
2023-12-08T10:46:53.784Z,9.07
2023-12-08T10:49:21.564Z,9.45
2023-12-08T10:51:49.177Z,9.70
2023-12-08T10:54:18.172Z,10.23
2023-12-08T10:56:49.453Z,8.88
2023-12-08T10:59:32.585Z,9.57
2023-12-08T11:02:03.669Z,10.45
2023-12-08T11:04:34.944Z,8.95
2023-12-08T11:07:05.362Z,9.90
2023-12-08T11:09:36.802Z,9.43
2023-12-08T11:12:05.488Z,9.95
2023-12-08T11:14:39.751Z,9.15
2023-12-08T11:17:17.873Z,10.35
2023-12-08T11:19:46.002Z,9.25
2023-12-08T11:22:13.344Z,9.80
2023-12-08T11:24:42.054Z,10.05
2023-12-08T11:27:27.081Z,9.95
2023-12-08T11:30:00.041Z,9.88
2023-12-08T11:32:51.076Z,10.15
2023-12-08T11:35:19.865Z,11.80
2023-12-08T11:37:47.107Z,9.90
2023-12-08T11:40:13.974Z,9.70
2023-12-08T11:42:43.836Z,11.18
2023-12-08T11:45:14.895Z,8.93
2023-12-08T11:47:42.866Z,9.50
2023-12-08T11:50:11.782Z,9.23
2023-12-08T11:52:39.076Z,9.55
2023-12-08T11:55:13.597Z,10.90
2023-12-08T11:57:53.189Z,9.43
2023-12-08T12:00:21.848Z,9.20
2023-12-08T12:02:50.477Z,11.05
2023-12-08T12:05:17.951Z,10.20
2023-12-08T12:07:52.013Z,11.13
2023-12-08T12:10:22.722Z,10.20
2023-12-08T12:13:04.449Z,10.30
2023-12-08T12:15:34.557Z,8.98
2023-12-08T12:18:02.892Z,10.25
2023-12-08T12:20:31.151Z,9.75
2023-12-08T12:22:57.946Z,10.32
2023-12-08T12:25:24.433Z,9.48
2023-12-08T12:27:53.436Z,10.50
2023-12-08T12:30:20.259Z,9.32
2023-12-08T12:32:48.919Z,10.32
2023-12-08T12:35:16.103Z,9.93
2023-12-08T12:37:44.087Z,10.32
2023-12-08T12:40:12.018Z,10.32
2023-12-08T12:42:48.822Z,10.25
2023-12-08T12:45:31.867Z,9.75
2023-12-08T12:48:06.052Z,11.10
2023-12-08T12:50:48.594Z,11.23
2023-12-08T12:53:19.268Z,9.75
2023-12-08T12:55:47.479Z,9.73
2023-12-08T12:58:21.855Z,10.27
2023-12-08T13:00:49.247Z,10.07
2023-12-08T13:03:18.866Z,9.23
2023-12-08T13:05:47.698Z,9.85
2023-12-08T13:08:16.800Z,10.45
2023-12-08T13:10:45.575Z,11.02
2023-12-08T13:13:13.537Z,10.38
2023-12-08T13:15:41.253Z,10.15
2023-12-08T13:18:08.588Z,10.27
2023-12-08T13:20:41.349Z,9.77
2023-12-08T13:23:08.451Z,10.15
2023-12-08T13:25:35.015Z,10.50
2023-12-08T13:28:01.520Z,10.15
2023-12-08T13:30:28.125Z,9.65
2023-12-08T13:32:57.684Z,10.00
2023-12-08T13:35:24.478Z,9.75
2023-12-08T13:37:51.182Z,10.52
2023-12-08T13:40:18.202Z,10.38
2023-12-08T13:42:44.792Z,9.55
2023-12-08T13:45:11.481Z,9.85
2023-12-08T13:47:38.396Z,9.80
2023-12-08T13:50:05.445Z,10.25
2023-12-08T13:52:32.088Z,9.02
2023-12-08T13:54:58.655Z,10.30
2023-12-08T13:57:25.603Z,9.18
2023-12-08T13:59:53.791Z,8.95
2023-12-08T14:02:21.091Z,9.65
2023-12-08T14:04:47.917Z,9.57
2023-12-08T14:07:14.913Z,9.07
2023-12-08T14:09:43.043Z,10.13
2023-12-08T14:12:10.845Z,10.10
2023-12-08T14:14:40.683Z,10.80
2023-12-08T14:17:07.416Z,10.88
2023-12-08T14:19:34.361Z,11.65
2023-12-08T14:22:00.936Z,10.25
2023-12-08T14:24:28.078Z,10.02
2023-12-08T14:26:55.020Z,10.48
2023-12-08T14:29:23.262Z,10.93
2023-12-08T14:31:50.035Z,10.82
2023-12-08T14:34:16.803Z,10.90
2023-12-08T14:36:43.530Z,11.27
2023-12-08T14:39:11.493Z,12.35
2023-12-08T14:41:38.232Z,12.25
2023-12-08T14:44:05.009Z,12.32
2023-12-08T14:46:31.629Z,10.50
2023-12-08T14:48:58.392Z,11.55
2023-12-08T14:51:25.198Z,10.85
2023-12-08T14:53:52.971Z,11.25
2023-12-08T14:56:20.560Z,11.90
2023-12-08T14:58:47.550Z,11.60
2023-12-08T15:01:19.423Z,11.27
2023-12-08T15:03:47.146Z,14.10
2023-12-08T15:06:14.947Z,11.68
2023-12-08T15:08:42.323Z,10.70
2023-12-08T15:11:10.333Z,11.38
2023-12-08T15:13:37.943Z,11.27
2023-12-08T15:16:05.302Z,10.20
2023-12-08T15:18:32.968Z,9.98
2023-12-08T15:21:01.020Z,11.15
2023-12-08T15:23:33.773Z,9.98
2023-12-08T15:26:01.412Z,9.82
2023-12-08T15:28:28.218Z,10.13
2023-12-08T15:30:54.963Z,10.70
2023-12-08T15:33:21.926Z,13.60
2023-12-08T15:35:48.989Z,10.25
2023-12-08T15:38:15.739Z,9.65
2023-12-08T15:40:43.105Z,9.25
2023-12-08T15:43:09.721Z,8.70
2023-12-08T15:45:36.470Z,10.43
2023-12-08T15:48:04.117Z,15.10
2023-12-08T15:50:30.905Z,12.65
2023-12-08T15:52:57.486Z,10.32
2023-12-08T15:55:25.712Z,10.15
2023-12-08T15:57:53.940Z,10.48
2023-12-08T16:00:21.214Z,10.05
2023-12-08T16:02:48.294Z,9.45
2023-12-08T16:05:15.074Z,10.63
2023-12-08T16:07:41.903Z,10.45
2023-12-08T16:10:09.562Z,10.68
2023-12-08T16:12:36.177Z,9.73
2023-12-08T16:15:02.967Z,10.52
2023-12-08T16:17:29.731Z,10.18
2023-12-08T16:19:56.750Z,10.57
2023-12-08T16:22:23.473Z,10.07
2023-12-08T16:24:50.218Z,10.45
2023-12-08T16:27:16.859Z,11.18
2023-12-08T16:29:47.423Z,10.35
2023-12-08T16:32:14.460Z,11.43
2023-12-08T16:34:41.284Z,10.45
2023-12-08T16:37:07.977Z,11.10
2023-12-08T16:39:35.151Z,12.98
2023-12-08T16:42:01.986Z,10.77
2023-12-08T16:44:28.688Z,11.40
2023-12-08T16:46:55.405Z,12.18
2023-12-08T16:49:22.414Z,11.80
2023-12-08T16:51:51.264Z,14.63
2023-12-08T16:54:18.777Z,11.27
2023-12-08T16:56:45.773Z,12.57
2023-12-08T16:59:12.411Z,11.45
2023-12-08T17:01:39.161Z,13.35
2023-12-08T17:04:07.690Z,13.25
2023-12-08T17:06:34.629Z,12.80
2023-12-08T17:09:01.560Z,14.52
2023-12-08T17:11:28.169Z,14.02
2023-12-08T17:13:55.122Z,13.77
2023-12-08T17:16:22.754Z,13.25
2023-12-08T17:18:49.675Z,13.60
2023-12-08T17:21:17.250Z,13.90
2023-12-08T17:23:44.237Z,14.55
2023-12-08T17:26:13.121Z,14.32
2023-12-08T17:28:41.641Z,12.88
2023-12-08T17:31:08.183Z,13.32
2023-12-08T17:33:34.864Z,13.60
2023-12-08T17:36:01.857Z,12.50
2023-12-08T17:38:28.443Z,12.35
2023-12-08T17:40:54.963Z,13.57
2023-12-08T17:43:21.898Z,12.48
2023-12-08T17:45:48.443Z,15.15
2023-12-08T17:48:15.176Z,13.23
2023-12-08T17:50:41.861Z,13.13
2023-12-08T17:53:08.476Z,16.52
2023-12-08T17:55:35.044Z,13.00
2023-12-08T17:58:01.588Z,12.63
2023-12-08T18:00:28.192Z,12.15
2023-12-08T18:02:56.653Z,12.65
2023-12-08T18:05:24.090Z,12.70
2023-12-08T18:07:50.725Z,14.85
2023-12-08T18:10:17.381Z,11.77
2023-12-08T18:12:43.980Z,17.08
2023-12-08T18:15:11.220Z,14.48
2023-12-08T18:17:38.780Z,11.70
2023-12-08T18:20:06.406Z,11.27
2023-12-08T18:22:34.806Z,12.60
2023-12-08T18:25:01.391Z,12.20
2023-12-08T18:27:39.696Z,11.65
2023-12-08T18:30:15.488Z,11.98
2023-12-08T18:32:43.083Z,16.10
2023-12-08T18:35:09.847Z,14.13
2023-12-08T18:37:36.404Z,10.43
2023-12-08T18:40:04.501Z,11.68
2023-12-08T18:42:31.418Z,12.55
2023-12-08T18:44:58.467Z,10.77
2023-12-08T18:47:25.083Z,10.85
2023-12-08T18:49:51.723Z,10.60
2023-12-08T18:52:18.328Z,10.07
2023-12-08T18:54:44.952Z,9.82
2023-12-08T18:57:11.741Z,10.73
2023-12-08T18:59:39.462Z,10.40
2023-12-08T19:02:06.718Z,10.00
2023-12-08T19:04:34.901Z,9.98
2023-12-08T19:07:05.162Z,9.07
2023-12-08T19:09:31.968Z,9.63
2023-12-08T19:12:00.486Z,9.32
2023-12-08T19:14:28.693Z,9.75
2023-12-08T19:16:55.304Z,9.70
2023-12-08T19:19:22.285Z,11.10
2023-12-08T19:21:48.930Z,9.25
2023-12-08T19:24:15.528Z,11.25
2023-12-08T19:26:42.119Z,10.27
2023-12-08T19:29:08.718Z,9.90
2023-12-08T19:31:35.836Z,8.63
2023-12-08T19:34:03.981Z,10.40
2023-12-08T19:36:30.680Z,8.35
2023-12-08T19:39:00.940Z,9.70
2023-12-08T19:41:28.183Z,9.80
2023-12-08T19:43:55.852Z,8.55
2023-12-08T19:46:22.616Z,8.23
2023-12-08T19:48:49.457Z,8.32
2023-12-08T19:51:16.209Z,9.20
2023-12-08T19:53:42.966Z,8.75
2023-12-08T19:56:09.984Z,8.05
2023-12-08T19:58:36.576Z,8.43
2023-12-08T20:01:03.322Z,8.45
2023-12-08T20:03:30.040Z,8.30
2023-12-08T20:05:56.884Z,7.35
2023-12-08T20:08:23.507Z,9.05
2023-12-08T20:10:50.105Z,8.18
2023-12-08T20:13:16.933Z,8.70
2023-12-08T20:15:45.685Z,8.82
2023-12-08T20:18:12.763Z,7.85
2023-12-08T20:20:39.833Z,9.57
2023-12-08T20:23:06.794Z,8.48
2023-12-08T20:25:33.384Z,8.77
2023-12-08T20:28:01.166Z,7.93
2023-12-08T20:30:27.835Z,9.23
2023-12-08T20:32:56.996Z,8.00
2023-12-08T20:35:26.421Z,8.63
2023-12-08T20:40:19.582Z,8.05
2023-12-08T20:42:46.159Z,8.43
2023-12-08T20:45:12.857Z,7.95
2023-12-08T20:47:39.555Z,7.57
2023-12-08T20:50:06.567Z,9.23
2023-12-08T20:52:33.124Z,6.97
2023-12-08T20:54:59.816Z,7.75
2023-12-08T20:57:27.088Z,7.65
2023-12-08T20:59:53.878Z,7.80
2023-12-08T21:02:22.177Z,7.68
2023-12-08T21:04:49.458Z,7.47
2023-12-08T21:07:16.240Z,8.00
2023-12-08T21:09:42.963Z,6.30
2023-12-08T21:12:09.597Z,7.75
2023-12-08T21:14:36.142Z,8.32
2023-12-08T21:17:03.393Z,7.85
2023-12-08T21:19:31.639Z,7.38
2023-12-08T21:22:02.241Z,7.13
2023-12-08T21:24:29.122Z,7.93
2023-12-08T21:26:55.931Z,7.72
2023-12-08T21:29:22.451Z,7.50
2023-12-08T21:31:51.490Z,7.65
2023-12-08T21:34:18.153Z,7.85
2023-12-08T21:36:45.079Z,7.57
2023-12-08T21:39:11.710Z,8.10
2023-12-08T21:41:38.382Z,7.80
2023-12-08T21:44:05.200Z,7.78
2023-12-08T21:46:31.874Z,7.05
2023-12-08T21:48:59.615Z,6.50
2023-12-08T21:51:26.870Z,6.70
2023-12-08T21:53:54.348Z,6.47
2023-12-08T21:56:29.116Z,6.55
2023-12-08T21:58:57.773Z,6.28
2023-12-08T22:01:24.392Z,6.35
2023-12-08T22:03:51.125Z,5.80
2023-12-08T22:06:17.905Z,5.90
2023-12-08T22:08:44.444Z,5.90
2023-12-08T22:11:11.021Z,6.05
2023-12-08T22:13:37.540Z,5.93
2023-12-08T22:16:04.389Z,5.60
2023-12-08T22:18:31.125Z,5.82
2023-12-08T22:20:58.184Z,6.10
2023-12-08T22:23:24.901Z,6.32
2023-12-08T22:25:51.521Z,7.10
2023-12-08T22:28:21.621Z,6.35
2023-12-08T22:30:48.180Z,6.20
2023-12-08T22:33:15.557Z,6.88
2023-12-08T22:35:42.714Z,5.95
2023-12-08T22:38:11.000Z,5.57
2023-12-08T22:40:37.572Z,6.45
2023-12-08T22:43:04.156Z,6.25
2023-12-08T22:45:30.746Z,7.35
2023-12-08T22:47:57.442Z,5.43
2023-12-08T22:50:29.170Z,5.30
2023-12-08T22:52:59.167Z,5.97
2023-12-08T22:55:25.842Z,5.57
2023-12-08T22:57:52.384Z,6.10
2023-12-08T23:00:25.392Z,5.72
2023-12-08T23:02:53.551Z,5.90
2023-12-08T23:05:21.061Z,5.93
2023-12-08T23:07:48.224Z,5.57
2023-12-08T23:10:15.684Z,6.20
2023-12-08T23:12:42.661Z,5.45
2023-12-08T23:15:09.774Z,6.50
2023-12-08T23:17:37.194Z,5.55
2023-12-08T23:20:04.542Z,5.13
2023-12-08T23:22:31.101Z,5.28
2023-12-08T23:24:57.649Z,5.28
2023-12-08T23:27:24.370Z,4.85
2023-12-08T23:29:51.171Z,4.05
2023-12-08T23:32:17.789Z,5.32
2023-12-08T23:34:44.531Z,4.75
2023-12-08T23:37:11.234Z,5.15
2023-12-08T23:39:39.471Z,5.20
2023-12-08T23:42:06.855Z,5.18
2023-12-08T23:44:33.695Z,5.25
2023-12-08T23:47:00.714Z,5.18
2023-12-08T23:49:27.540Z,5.25
2023-12-08T23:51:54.196Z,5.70
2023-12-08T23:54:20.833Z,5.07
2023-12-08T23:56:47.459Z,5.22
2023-12-08T23:59:14.225Z,4.63
